sensor_id;sensor_type;location;lat;lon;timestamp;temperature;humidity
58309;DHT22;44117;57.142;24.826;2022-08-19T00:02:14;22.10;94.90
58309;DHT22;44117;57.142;24.826;2022-08-19T00:04:41;22.10;95.00
58309;DHT22;44117;57.142;24.826;2022-08-19T00:07:09;22.00;95.00
58309;DHT22;44117;57.142;24.826;2022-08-19T00:09:36;22.00;95.20
58309;DHT22;44117;57.142;24.826;2022-08-19T00:12:03;22.00;95.30
58309;DHT22;44117;57.142;24.826;2022-08-19T00:14:31;21.90;95.40
58309;DHT22;44117;57.142;24.826;2022-08-19T00:16:59;21.90;95.60
58309;DHT22;44117;57.142;24.826;2022-08-19T00:19:27;21.90;95.60
58309;DHT22;44117;57.142;24.826;2022-08-19T00:21:54;21.90;95.80
58309;DHT22;44117;57.142;24.826;2022-08-19T00:24:23;21.80;95.90
58309;DHT22;44117;57.142;24.826;2022-08-19T00:26:51;21.80;96.10
58309;DHT22;44117;57.142;24.826;2022-08-19T00:29:20;21.70;96.30
58309;DHT22;44117;57.142;24.826;2022-08-19T00:31:48;21.70;96.40
58309;DHT22;44117;57.142;24.826;2022-08-19T00:34:17;21.70;96.50
58309;DHT22;44117;57.142;24.826;2022-08-19T00:36:45;21.70;96.60
58309;DHT22;44117;57.142;24.826;2022-08-19T00:39:13;21.70;96.70
58309;DHT22;44117;57.142;24.826;2022-08-19T00:41:42;21.70;96.70
58309;DHT22;44117;57.142;24.826;2022-08-19T00:44:19;21.70;96.80
58309;DHT22;44117;57.142;24.826;2022-08-19T00:46:55;21.60;96.90
58309;DHT22;44117;57.142;24.826;2022-08-19T00:49:32;21.60;97.10
58309;DHT22;44117;57.142;24.826;2022-08-19T00:52:15;21.60;97.20
58309;DHT22;44117;57.142;24.826;2022-08-19T00:54:43;21.60;97.30
58309;DHT22;44117;57.142;24.826;2022-08-19T00:57:18;21.60;97.30
58309;DHT22;44117;57.142;24.826;2022-08-19T00:59:51;21.60;97.30
58309;DHT22;44117;57.142;24.826;2022-08-19T01:02:29;21.60;97.50
58309;DHT22;44117;57.142;24.826;2022-08-19T01:04:57;21.60;97.50
58309;DHT22;44117;57.142;24.826;2022-08-19T01:07:26;21.60;97.60
58309;DHT22;44117;57.142;24.826;2022-08-19T01:09:53;21.50;97.70
58309;DHT22;44117;57.142;24.826;2022-08-19T01:12:21;21.60;97.80
58309;DHT22;44117;57.142;24.826;2022-08-19T01:14:49;21.60;97.90
58309;DHT22;44117;57.142;24.826;2022-08-19T01:17:17;21.50;97.90
58309;DHT22;44117;57.142;24.826;2022-08-19T01:19:47;21.50;98.10
58309;DHT22;44117;57.142;24.826;2022-08-19T01:24:43;21.50;98.20
58309;DHT22;44117;57.142;24.826;2022-08-19T01:27:16;21.40;98.40
58309;DHT22;44117;57.142;24.826;2022-08-19T01:29:45;21.50;98.40
58309;DHT22;44117;57.142;24.826;2022-08-19T01:32:15;21.50;98.40
58309;DHT22;44117;57.142;24.826;2022-08-19T01:35:00;21.40;98.50
58309;DHT22;44117;57.142;24.826;2022-08-19T01:37:29;21.50;98.50
58309;DHT22;44117;57.142;24.826;2022-08-19T01:39:57;21.50;98.60
58309;DHT22;44117;57.142;24.826;2022-08-19T01:42:25;21.40;98.70
58309;DHT22;44117;57.142;24.826;2022-08-19T01:44:56;21.40;98.80
58309;DHT22;44117;57.142;24.826;2022-08-19T01:47:23;21.40;98.80
58309;DHT22;44117;57.142;24.826;2022-08-19T01:49:51;21.30;98.80
58309;DHT22;44117;57.142;24.826;2022-08-19T01:52:19;21.30;99.00
58309;DHT22;44117;57.142;24.826;2022-08-19T01:54:46;21.30;99.00
58309;DHT22;44117;57.142;24.826;2022-08-19T01:57:14;21.30;99.10
58309;DHT22;44117;57.142;24.826;2022-08-19T01:59:43;21.20;99.30
58309;DHT22;44117;57.142;24.826;2022-08-19T02:02:11;21.20;99.40
58309;DHT22;44117;57.142;24.826;2022-08-19T02:04:38;21.20;99.40
58309;DHT22;44117;57.142;24.826;2022-08-19T02:07:06;21.20;99.40
58309;DHT22;44117;57.142;24.826;2022-08-19T02:09:35;21.20;99.40
58309;DHT22;44117;57.142;24.826;2022-08-19T02:12:03;21.20;99.50
58309;DHT22;44117;57.142;24.826;2022-08-19T02:14:33;21.20;99.60
58309;DHT22;44117;57.142;24.826;2022-08-19T02:17:00;21.10;99.70
58309;DHT22;44117;57.142;24.826;2022-08-19T02:19:28;21.10;99.80
58309;DHT22;44117;57.142;24.826;2022-08-19T02:21:55;21.10;99.80
58309;DHT22;44117;57.142;24.826;2022-08-19T02:24:23;21.10;99.80
58309;DHT22;44117;57.142;24.826;2022-08-19T02:26:50;21.10;99.80
58309;DHT22;44117;57.142;24.826;2022-08-19T02:29:18;21.10;99.80
58309;DHT22;44117;57.142;24.826;2022-08-19T02:31:45;21.10;99.70
58309;DHT22;44117;57.142;24.826;2022-08-19T02:34:12;21.10;99.70
58309;DHT22;44117;57.142;24.826;2022-08-19T02:36:39;21.10;99.80
58309;DHT22;44117;57.142;24.826;2022-08-19T02:39:09;21.10;99.80
58309;DHT22;44117;57.142;24.826;2022-08-19T02:41:37;21.10;99.80
58309;DHT22;44117;57.142;24.826;2022-08-19T02:44:04;21.00;99.80
58309;DHT22;44117;57.142;24.826;2022-08-19T02:46:51;21.10;99.70
58309;DHT22;44117;57.142;24.826;2022-08-19T02:49:19;21.10;99.60
58309;DHT22;44117;57.142;24.826;2022-08-19T02:51:47;21.20;99.60
58309;DHT22;44117;57.142;24.826;2022-08-19T02:54:15;21.10;99.50
58309;DHT22;44117;57.142;24.826;2022-08-19T02:56:44;21.20;99.50
58309;DHT22;44117;57.142;24.826;2022-08-19T02:59:12;21.10;99.50
58309;DHT22;44117;57.142;24.826;2022-08-19T03:01:40;21.10;99.50
58309;DHT22;44117;57.142;24.826;2022-08-19T03:04:11;21.10;99.50
58309;DHT22;44117;57.142;24.826;2022-08-19T03:06:40;21.10;99.60
58309;DHT22;44117;57.142;24.826;2022-08-19T03:09:09;21.10;99.60
58309;DHT22;44117;57.142;24.826;2022-08-19T03:11:36;21.10;99.60
58309;DHT22;44117;57.142;24.826;2022-08-19T03:14:06;21.10;99.50
58309;DHT22;44117;57.142;24.826;2022-08-19T03:16:40;21.20;99.50
58309;DHT22;44117;57.142;24.826;2022-08-19T03:19:07;21.20;99.40
58309;DHT22;44117;57.142;24.826;2022-08-19T03:21:35;21.20;99.40
58309;DHT22;44117;57.142;24.826;2022-08-19T03:24:05;21.20;99.40
58309;DHT22;44117;57.142;24.826;2022-08-19T03:26:33;21.20;99.50
58309;DHT22;44117;57.142;24.826;2022-08-19T03:29:05;21.20;99.50
58309;DHT22;44117;57.142;24.826;2022-08-19T03:31:34;21.10;99.60
58309;DHT22;44117;57.142;24.826;2022-08-19T03:34:25;21.10;99.70
58309;DHT22;44117;57.142;24.826;2022-08-19T03:36:57;21.10;99.70
58309;DHT22;44117;57.142;24.826;2022-08-19T03:39:26;21.10;99.70
58309;DHT22;44117;57.142;24.826;2022-08-19T03:41:54;21.10;99.80
58309;DHT22;44117;57.142;24.826;2022-08-19T03:44:46;21.10;99.90
58309;DHT22;44117;57.142;24.826;2022-08-19T03:47:14;21.10;99.90
58309;DHT22;44117;57.142;24.826;2022-08-19T03:49:42;21.10;99.90
58309;DHT22;44117;57.142;24.826;2022-08-19T03:52:09;21.00;99.90
58309;DHT22;44117;57.142;24.826;2022-08-19T03:54:37;21.00;99.90
58309;DHT22;44117;57.142;24.826;2022-08-19T03:57:05;21.00;99.90
58309;DHT22;44117;57.142;24.826;2022-08-19T03:59:35;21.00;99.90
58309;DHT22;44117;57.142;24.826;2022-08-19T04:02:08;21.00;99.90
58309;DHT22;44117;57.142;24.826;2022-08-19T04:04:37;21.00;99.90
58309;DHT22;44117;57.142;24.826;2022-08-19T04:07:05;21.00;99.90
58309;DHT22;44117;57.142;24.826;2022-08-19T04:09:34;21.10;99.90
58309;DHT22;44117;57.142;24.826;2022-08-19T04:12:04;21.10;99.90
58309;DHT22;44117;57.142;24.826;2022-08-19T04:14:32;21.10;99.90
58309;DHT22;44117;57.142;24.826;2022-08-19T04:17:02;21.20;99.90
58309;DHT22;44117;57.142;24.826;2022-08-19T04:19:33;21.20;99.90
58309;DHT22;44117;57.142;24.826;2022-08-19T04:22:02;21.30;99.90
58309;DHT22;44117;57.142;24.826;2022-08-19T04:24:29;21.30;99.90
58309;DHT22;44117;57.142;24.826;2022-08-19T04:27:00;21.40;99.90
58309;DHT22;44117;57.142;24.826;2022-08-19T04:29:27;21.50;99.90
58309;DHT22;44117;57.142;24.826;2022-08-19T04:31:58;21.60;99.90
58309;DHT22;44117;57.142;24.826;2022-08-19T04:34:28;21.60;99.90
58309;DHT22;44117;57.142;24.826;2022-08-19T04:36:57;21.70;99.80
58309;DHT22;44117;57.142;24.826;2022-08-19T04:39:30;21.70;99.90
58309;DHT22;44117;57.142;24.826;2022-08-19T04:42:17;21.70;99.70
58309;DHT22;44117;57.142;24.826;2022-08-19T04:45:05;21.80;99.80
58309;DHT22;44117;57.142;24.826;2022-08-19T04:47:39;21.90;99.70
58309;DHT22;44117;57.142;24.826;2022-08-19T04:50:25;21.90;99.60
58309;DHT22;44117;57.142;24.826;2022-08-19T04:52:53;22.00;99.50
58309;DHT22;44117;57.142;24.826;2022-08-19T04:55:22;22.10;99.50
58309;DHT22;44117;57.142;24.826;2022-08-19T04:57:53;22.10;99.30
58309;DHT22;44117;57.142;24.826;2022-08-19T05:00:21;22.20;99.30
58309;DHT22;44117;57.142;24.826;2022-08-19T05:02:48;22.30;99.00
58309;DHT22;44117;57.142;24.826;2022-08-19T05:05:16;22.40;98.90
58309;DHT22;44117;57.142;24.826;2022-08-19T05:07:44;22.40;98.70
58309;DHT22;44117;57.142;24.826;2022-08-19T05:10:11;22.50;98.90
58309;DHT22;44117;57.142;24.826;2022-08-19T05:12:39;22.50;98.70
58309;DHT22;44117;57.142;24.826;2022-08-19T05:15:07;22.60;98.80
58309;DHT22;44117;57.142;24.826;2022-08-19T05:17:38;22.70;98.40
58309;DHT22;44117;57.142;24.826;2022-08-19T05:20:25;22.70;98.30
58309;DHT22;44117;57.142;24.826;2022-08-19T05:23:11;22.70;98.40
58309;DHT22;44117;57.142;24.826;2022-08-19T05:25:48;22.80;98.20
58309;DHT22;44117;57.142;24.826;2022-08-19T05:28:17;22.90;98.10
58309;DHT22;44117;57.142;24.826;2022-08-19T05:30:45;22.90;97.80
58309;DHT22;44117;57.142;24.826;2022-08-19T05:33:13;23.00;97.90
58309;DHT22;44117;57.142;24.826;2022-08-19T05:35:41;23.10;97.70
58309;DHT22;44117;57.142;24.826;2022-08-19T05:38:08;23.20;97.60
58309;DHT22;44117;57.142;24.826;2022-08-19T05:40:36;23.20;97.40
58309;DHT22;44117;57.142;24.826;2022-08-19T05:43:06;23.10;97.20
58309;DHT22;44117;57.142;24.826;2022-08-19T05:45:39;23.00;97.40
58309;DHT22;44117;57.142;24.826;2022-08-19T05:48:07;23.10;97.20
58309;DHT22;44117;57.142;24.826;2022-08-19T05:50:41;23.10;97.30
58309;DHT22;44117;57.142;24.826;2022-08-19T05:53:08;23.30;97.00
58309;DHT22;44117;57.142;24.826;2022-08-19T05:55:36;23.60;96.90
58309;DHT22;44117;57.142;24.826;2022-08-19T05:58:05;23.70;96.70
58309;DHT22;44117;57.142;24.826;2022-08-19T06:00:35;23.60;96.30
58309;DHT22;44117;57.142;24.826;2022-08-19T06:03:03;23.60;96.60
58309;DHT22;44117;57.142;24.826;2022-08-19T06:05:39;23.60;96.20
58309;DHT22;44117;57.142;24.826;2022-08-19T06:08:17;23.70;96.60
58309;DHT22;44117;57.142;24.826;2022-08-19T06:10:45;23.80;96.30
58309;DHT22;44117;57.142;24.826;2022-08-19T06:13:12;24.00;96.10
58309;DHT22;44117;57.142;24.826;2022-08-19T06:15:39;24.00;95.80
58309;DHT22;44117;57.142;24.826;2022-08-19T06:18:11;24.10;96.20
58309;DHT22;44117;57.142;24.826;2022-08-19T06:20:38;24.10;95.70
58309;DHT22;44117;57.142;24.826;2022-08-19T06:23:22;24.10;95.70
58309;DHT22;44117;57.142;24.826;2022-08-19T06:25:50;24.20;95.50
58309;DHT22;44117;57.142;24.826;2022-08-19T06:28:17;24.30;95.60
58309;DHT22;44117;57.142;24.826;2022-08-19T06:30:45;24.30;95.20
58309;DHT22;44117;57.142;24.826;2022-08-19T06:33:12;24.40;94.90
58309;DHT22;44117;57.142;24.826;2022-08-19T06:35:41;24.50;94.80
58309;DHT22;44117;57.142;24.826;2022-08-19T06:38:08;24.40;94.90
58309;DHT22;44117;57.142;24.826;2022-08-19T06:40:36;24.60;94.50
58309;DHT22;44117;57.142;24.826;2022-08-19T06:43:05;25.00;94.70
58309;DHT22;44117;57.142;24.826;2022-08-19T06:45:37;25.20;94.10
58309;DHT22;44117;57.142;24.826;2022-08-19T06:48:05;25.60;93.90
58309;DHT22;44117;57.142;24.826;2022-08-19T06:50:33;25.60;93.60
58309;DHT22;44117;57.142;24.826;2022-08-19T06:53:05;25.70;93.30
58309;DHT22;44117;57.142;24.826;2022-08-19T06:55:32;25.70;93.70
58309;DHT22;44117;57.142;24.826;2022-08-19T06:58:03;25.70;93.90
58309;DHT22;44117;57.142;24.826;2022-08-19T07:00:31;25.70;93.20
58309;DHT22;44117;57.142;24.826;2022-08-19T07:02:59;25.50;93.20
58309;DHT22;44117;57.142;24.826;2022-08-19T07:05:31;25.50;93.40
58309;DHT22;44117;57.142;24.826;2022-08-19T07:08:00;25.40;93.10
58309;DHT22;44117;57.142;24.826;2022-08-19T07:10:30;25.30;92.90
58309;DHT22;44117;57.142;24.826;2022-08-19T07:13:00;25.50;93.60
58309;DHT22;44117;57.142;24.826;2022-08-19T07:15:27;25.60;93.50
58309;DHT22;44117;57.142;24.826;2022-08-19T07:17:54;25.60;93.40
58309;DHT22;44117;57.142;24.826;2022-08-19T07:20:22;25.80;92.60
58309;DHT22;44117;57.142;24.826;2022-08-19T07:22:54;25.80;92.40
58309;DHT22;44117;57.142;24.826;2022-08-19T07:25:22;25.90;92.40
58309;DHT22;44117;57.142;24.826;2022-08-19T07:27:58;25.90;92.70
58309;DHT22;44117;57.142;24.826;2022-08-19T07:30:27;26.10;92.30
58309;DHT22;44117;57.142;24.826;2022-08-19T07:32:55;26.40;92.30
58309;DHT22;44117;57.142;24.826;2022-08-19T07:35:23;26.70;91.80
58309;DHT22;44117;57.142;24.826;2022-08-19T07:37:50;27.00;91.60
58309;DHT22;44117;57.142;24.826;2022-08-19T07:40:17;27.30;91.50
58309;DHT22;44117;57.142;24.826;2022-08-19T07:42:45;27.50;89.20
58309;DHT22;44117;57.142;24.826;2022-08-19T07:45:12;27.60;89.60
58309;DHT22;44117;57.142;24.826;2022-08-19T07:47:39;27.60;88.10
58309;DHT22;44117;57.142;24.826;2022-08-19T07:50:17;27.70;88.30
58309;DHT22;44117;57.142;24.826;2022-08-19T07:52:47;27.60;88.50
58309;DHT22;44117;57.142;24.826;2022-08-19T07:55:19;27.70;89.10
58309;DHT22;44117;57.142;24.826;2022-08-19T07:58:07;27.70;87.90
58309;DHT22;44117;57.142;24.826;2022-08-19T08:00:35;27.70;87.70
58309;DHT22;44117;57.142;24.826;2022-08-19T08:03:02;27.70;88.70
58309;DHT22;44117;57.142;24.826;2022-08-19T08:05:30;27.70;86.90
58309;DHT22;44117;57.142;24.826;2022-08-19T08:08:15;27.70;86.60
58309;DHT22;44117;57.142;24.826;2022-08-19T08:11:16;27.80;88.00
58309;DHT22;44117;57.142;24.826;2022-08-19T08:13:47;27.80;85.50
58309;DHT22;44117;57.142;24.826;2022-08-19T08:16:32;27.80;86.10
58309;DHT22;44117;57.142;24.826;2022-08-19T08:19:00;27.90;85.40
58309;DHT22;44117;57.142;24.826;2022-08-19T08:21:27;28.10;84.70
58309;DHT22;44117;57.142;24.826;2022-08-19T08:23:55;28.00;85.60
58309;DHT22;44117;57.142;24.826;2022-08-19T08:26:23;27.90;85.10
58309;DHT22;44117;57.142;24.826;2022-08-19T08:28:51;27.90;84.00
58309;DHT22;44117;57.142;24.826;2022-08-19T08:31:18;28.10;84.40
58309;DHT22;44117;57.142;24.826;2022-08-19T08:33:46;28.40;82.90
58309;DHT22;44117;57.142;24.826;2022-08-19T08:36:14;28.50;80.70
58309;DHT22;44117;57.142;24.826;2022-08-19T08:38:42;28.40;81.00
58309;DHT22;44117;57.142;24.826;2022-08-19T08:41:23;28.50;82.00
58309;DHT22;44117;57.142;24.826;2022-08-19T08:43:55;28.40;80.80
58309;DHT22;44117;57.142;24.826;2022-08-19T08:46:38;28.50;79.80
58309;DHT22;44117;57.142;24.826;2022-08-19T08:52:05;28.60;82.20
58309;DHT22;44117;57.142;24.826;2022-08-19T08:54:43;28.70;79.40
58309;DHT22;44117;57.142;24.826;2022-08-19T09:00:20;28.50;79.80
58309;DHT22;44117;57.142;24.826;2022-08-19T09:02:48;28.50;79.10
58309;DHT22;44117;57.142;24.826;2022-08-19T09:05:18;28.60;80.60
58309;DHT22;44117;57.142;24.826;2022-08-19T09:10:39;29.00;79.20
58309;DHT22;44117;57.142;24.826;2022-08-19T09:16:12;29.00;79.20
58309;DHT22;44117;57.142;24.826;2022-08-19T09:18:47;29.10;78.70
58309;DHT22;44117;57.142;24.826;2022-08-19T09:21:15;29.10;79.00
58309;DHT22;44117;57.142;24.826;2022-08-19T09:23:43;29.30;78.60
58309;DHT22;44117;57.142;24.826;2022-08-19T09:26:19;29.30;76.30
58309;DHT22;44117;57.142;24.826;2022-08-19T09:28:50;29.20;76.10
58309;DHT22;44117;57.142;24.826;2022-08-19T09:31:22;29.40;76.30
58309;DHT22;44117;57.142;24.826;2022-08-19T09:33:51;29.30;74.00
58309;DHT22;44117;57.142;24.826;2022-08-19T09:36:20;29.40;77.80
58309;DHT22;44117;57.142;24.826;2022-08-19T09:39:00;29.50;75.10
58309;DHT22;44117;57.142;24.826;2022-08-19T09:41:28;29.60;73.80
58309;DHT22;44117;57.142;24.826;2022-08-19T09:43:56;29.50;73.40
58309;DHT22;44117;57.142;24.826;2022-08-19T09:46:27;29.40;71.70
58309;DHT22;44117;57.142;24.826;2022-08-19T09:48:58;29.50;73.10
58309;DHT22;44117;57.142;24.826;2022-08-19T09:51:33;29.50;71.90
58309;DHT22;44117;57.142;24.826;2022-08-19T09:54:04;29.50;72.90
58309;DHT22;44117;57.142;24.826;2022-08-19T09:56:32;29.60;72.80
58309;DHT22;44117;57.142;24.826;2022-08-19T09:59:02;29.80;72.40
58309;DHT22;44117;57.142;24.826;2022-08-19T10:01:31;29.90;71.80
58309;DHT22;44117;57.142;24.826;2022-08-19T10:04:00;30.00;72.20
58309;DHT22;44117;57.142;24.826;2022-08-19T10:06:40;30.40;71.80
58309;DHT22;44117;57.142;24.826;2022-08-19T10:09:14;30.70;70.70
58309;DHT22;44117;57.142;24.826;2022-08-19T10:11:43;31.00;70.30
58309;DHT22;44117;57.142;24.826;2022-08-19T10:14:20;31.20;67.20
58309;DHT22;44117;57.142;24.826;2022-08-19T10:16:50;31.20;67.40
58309;DHT22;44117;57.142;24.826;2022-08-19T10:19:19;31.40;66.70
58309;DHT22;44117;57.142;24.826;2022-08-19T10:21:53;31.40;66.90
58309;DHT22;44117;57.142;24.826;2022-08-19T10:24:26;31.30;65.40
58309;DHT22;44117;57.142;24.826;2022-08-19T10:26:55;31.50;66.00
58309;DHT22;44117;57.142;24.826;2022-08-19T10:29:26;31.10;64.80
58309;DHT22;44117;57.142;24.826;2022-08-19T10:32:04;31.30;66.10
58309;DHT22;44117;57.142;24.826;2022-08-19T10:34:38;31.50;65.40
58309;DHT22;44117;57.142;24.826;2022-08-19T10:37:16;31.60;64.20
58309;DHT22;44117;57.142;24.826;2022-08-19T10:39:54;31.70;63.60
58309;DHT22;44117;57.142;24.826;2022-08-19T10:42:22;32.10;63.00
58309;DHT22;44117;57.142;24.826;2022-08-19T10:44:49;32.00;63.50
58309;DHT22;44117;57.142;24.826;2022-08-19T10:47:18;32.20;63.20
58309;DHT22;44117;57.142;24.826;2022-08-19T10:49:52;32.20;63.00
58309;DHT22;44117;57.142;24.826;2022-08-19T10:52:43;32.00;61.70
58309;DHT22;44117;57.142;24.826;2022-08-19T10:55:21;31.90;61.80
58309;DHT22;44117;57.142;24.826;2022-08-19T10:58:15;32.50;62.80
58309;DHT22;44117;57.142;24.826;2022-08-19T11:00:50;32.50;61.60
58309;DHT22;44117;57.142;24.826;2022-08-19T11:03:17;32.60;62.00
58309;DHT22;44117;57.142;24.826;2022-08-19T11:05:45;32.20;63.20
58309;DHT22;44117;57.142;24.826;2022-08-19T11:08:12;32.90;62.80
58309;DHT22;44117;57.142;24.826;2022-08-19T11:10:52;33.00;62.20
58309;DHT22;44117;57.142;24.826;2022-08-19T11:13:24;33.00;60.90
58309;DHT22;44117;57.142;24.826;2022-08-19T11:16:12;33.30;61.10
58309;DHT22;44117;57.142;24.826;2022-08-19T11:18:50;33.00;59.00
58309;DHT22;44117;57.142;24.826;2022-08-19T11:21:23;33.20;58.60
58309;DHT22;44117;57.142;24.826;2022-08-19T11:23:53;33.50;59.40
58309;DHT22;44117;57.142;24.826;2022-08-19T11:26:21;32.90;57.80
58309;DHT22;44117;57.142;24.826;2022-08-19T11:28:49;32.70;58.70
58309;DHT22;44117;57.142;24.826;2022-08-19T11:31:23;32.90;58.70
58309;DHT22;44117;57.142;24.826;2022-08-19T11:34:01;33.40;58.60
58309;DHT22;44117;57.142;24.826;2022-08-19T11:36:30;33.50;58.90
58309;DHT22;44117;57.142;24.826;2022-08-19T11:39:00;33.20;58.00
58309;DHT22;44117;57.142;24.826;2022-08-19T11:41:27;33.20;57.40
58309;DHT22;44117;57.142;24.826;2022-08-19T11:43:55;33.80;55.90
58309;DHT22;44117;57.142;24.826;2022-08-19T11:46:24;33.90;55.10
58309;DHT22;44117;57.142;24.826;2022-08-19T11:48:52;33.90;54.80
58309;DHT22;44117;57.142;24.826;2022-08-19T11:51:22;34.00;55.10
58309;DHT22;44117;57.142;24.826;2022-08-19T11:53:53;34.10;54.50
58309;DHT22;44117;57.142;24.826;2022-08-19T11:56:22;33.70;55.80
58309;DHT22;44117;57.142;24.826;2022-08-19T11:58:50;33.90;54.80
58309;DHT22;44117;57.142;24.826;2022-08-19T12:01:20;33.60;55.30
58309;DHT22;44117;57.142;24.826;2022-08-19T12:03:50;33.90;54.90
58309;DHT22;44117;57.142;24.826;2022-08-19T12:06:38;34.10;54.60
58309;DHT22;44117;57.142;24.826;2022-08-19T12:10:29;34.30;54.40
58309;DHT22;44117;57.142;24.826;2022-08-19T12:14:19;34.20;53.90
58309;DHT22;44117;57.142;24.826;2022-08-19T12:18:10;33.90;53.80
58309;DHT22;44117;57.142;24.826;2022-08-19T12:22:00;33.90;53.80
58309;DHT22;44117;57.142;24.826;2022-08-19T12:25:51;34.00;52.60
58309;DHT22;44117;57.142;24.826;2022-08-19T12:30:09;34.20;53.40
58309;DHT22;44117;57.142;24.826;2022-08-19T12:33:58;34.20;54.10
58309;DHT22;44117;57.142;24.826;2022-08-19T12:37:50;34.30;52.90
58309;DHT22;44117;57.142;24.826;2022-08-19T12:41:40;34.00;53.40
58309;DHT22;44117;57.142;24.826;2022-08-19T12:45:31;34.00;53.80
58309;DHT22;44117;57.142;24.826;2022-08-19T12:49:22;34.70;51.70
58309;DHT22;44117;57.142;24.826;2022-08-19T12:53:14;34.50;51.70
58309;DHT22;44117;57.142;24.826;2022-08-19T12:57:05;34.60;52.40
58309;DHT22;44117;57.142;24.826;2022-08-19T13:00:55;34.50;52.30
58309;DHT22;44117;57.142;24.826;2022-08-19T13:04:47;34.60;52.50
58309;DHT22;44117;57.142;24.826;2022-08-19T13:08:37;34.70;52.00
58309;DHT22;44117;57.142;24.826;2022-08-19T13:12:27;34.50;52.00
58309;DHT22;44117;57.142;24.826;2022-08-19T13:16:19;34.70;52.20
58309;DHT22;44117;57.142;24.826;2022-08-19T13:20:10;34.90;51.50
58309;DHT22;44117;57.142;24.826;2022-08-19T13:24:00;34.30;51.90
58309;DHT22;44117;57.142;24.826;2022-08-19T13:27:52;34.00;52.50
58309;DHT22;44117;57.142;24.826;2022-08-19T13:31:43;34.00;53.60
58309;DHT22;44117;57.142;24.826;2022-08-19T13:35:32;34.60;52.90
58309;DHT22;44117;57.142;24.826;2022-08-19T13:39:23;34.70;53.50
58309;DHT22;44117;57.142;24.826;2022-08-19T13:43:13;35.20;52.80
58309;DHT22;44117;57.142;24.826;2022-08-19T13:47:05;35.20;53.40
58309;DHT22;44117;57.142;24.826;2022-08-19T13:50:56;35.10;53.10
58309;DHT22;44117;57.142;24.826;2022-08-19T13:54:46;35.40;52.70
58309;DHT22;44117;57.142;24.826;2022-08-19T13:58:38;35.70;52.90
58309;DHT22;44117;57.142;24.826;2022-08-19T14:02:28;36.50;51.30
58309;DHT22;44117;57.142;24.826;2022-08-19T14:06:19;36.80;51.00
58309;DHT22;44117;57.142;24.826;2022-08-19T14:10:10;36.20;50.50
58309;DHT22;44117;57.142;24.826;2022-08-19T14:14:00;35.90;51.60
58309;DHT22;44117;57.142;24.826;2022-08-19T14:17:51;35.90;50.80
58309;DHT22;44117;57.142;24.826;2022-08-19T14:21:43;36.00;52.10
58309;DHT22;44117;57.142;24.826;2022-08-19T14:25:33;37.40;51.40
58309;DHT22;44117;57.142;24.826;2022-08-19T14:29:25;36.80;50.40
58309;DHT22;44117;57.142;24.826;2022-08-19T14:33:20;37.30;49.90
58309;DHT22;44117;57.142;24.826;2022-08-19T14:37:16;36.50;49.70
58309;DHT22;44117;57.142;24.826;2022-08-19T14:41:14;36.50;49.70
58309;DHT22;44117;57.142;24.826;2022-08-19T14:45:08;36.20;49.70
58309;DHT22;44117;57.142;24.826;2022-08-19T14:49:04;36.30;49.20
58309;DHT22;44117;57.142;24.826;2022-08-19T14:53:00;35.70;50.40
58309;DHT22;44117;57.142;24.826;2022-08-19T14:56:55;36.20;50.40
58309;DHT22;44117;57.142;24.826;2022-08-19T15:00:50;36.80;50.90
58309;DHT22;44117;57.142;24.826;2022-08-19T15:04:45;37.10;50.30
58309;DHT22;44117;57.142;24.826;2022-08-19T15:08:42;35.40;50.20
58309;DHT22;44117;57.142;24.826;2022-08-19T15:12:38;36.00;50.70
58309;DHT22;44117;57.142;24.826;2022-08-19T15:16:34;35.70;50.60
58309;DHT22;44117;57.142;24.826;2022-08-19T15:20:30;35.00;52.10
58309;DHT22;44117;57.142;24.826;2022-08-19T15:24:25;35.30;51.30
58309;DHT22;44117;57.142;24.826;2022-08-19T15:28:21;35.10;51.30
58309;DHT22;44117;57.142;24.826;2022-08-19T15:32:17;34.40;52.20
58309;DHT22;44117;57.142;24.826;2022-08-19T15:36:12;35.00;51.30
58309;DHT22;44117;57.142;24.826;2022-08-19T15:40:08;35.50;51.50
58309;DHT22;44117;57.142;24.826;2022-08-19T15:44:05;35.80;50.40
58309;DHT22;44117;57.142;24.826;2022-08-19T15:48:00;35.10;50.40
58309;DHT22;44117;57.142;24.826;2022-08-19T15:51:55;35.00;51.40
58309;DHT22;44117;57.142;24.826;2022-08-19T15:55:50;34.60;51.60
58309;DHT22;44117;57.142;24.826;2022-08-19T15:59:46;34.40;52.20
58309;DHT22;44117;57.142;24.826;2022-08-19T16:03:42;34.10;52.40
58309;DHT22;44117;57.142;24.826;2022-08-19T16:07:37;33.30;53.20
58309;DHT22;44117;57.142;24.826;2022-08-19T16:11:34;32.90;54.10
58309;DHT22;44117;57.142;24.826;2022-08-19T16:15:29;32.50;55.10
58309;DHT22;44117;57.142;24.826;2022-08-19T16:19:25;32.20;56.30
58309;DHT22;44117;57.142;24.826;2022-08-19T16:23:21;31.70;58.10
58309;DHT22;44117;57.142;24.826;2022-08-19T16:27:18;31.30;58.30
58309;DHT22;44117;57.142;24.826;2022-08-19T16:31:14;31.00;59.40
58309;DHT22;44117;57.142;24.826;2022-08-19T16:35:10;30.60;60.60
58309;DHT22;44117;57.142;24.826;2022-08-19T16:39:13;30.60;61.10
58309;DHT22;44117;57.142;24.826;2022-08-19T16:43:04;30.10;62.00
58309;DHT22;44117;57.142;24.826;2022-08-19T16:47:01;29.90;63.10
58309;DHT22;44117;57.142;24.826;2022-08-19T16:50:56;29.60;63.30
58309;DHT22;44117;57.142;24.826;2022-08-19T16:54:52;29.50;63.60
58309;DHT22;44117;57.142;24.826;2022-08-19T16:58:47;29.50;63.60
58309;DHT22;44117;57.142;24.826;2022-08-19T17:59:46;25.50;71.20
58309;DHT22;44117;57.142;24.826;2022-08-19T18:02:15;25.40;71.30
58309;DHT22;44117;57.142;24.826;2022-08-19T18:04:47;25.30;71.40
58309;DHT22;44117;57.142;24.826;2022-08-19T18:07:15;25.30;71.70
58309;DHT22;44117;57.142;24.826;2022-08-19T18:09:48;25.20;71.60
58309;DHT22;44117;57.142;24.826;2022-08-19T18:12:25;25.10;72.00
58309;DHT22;44117;57.142;24.826;2022-08-19T18:14:57;24.90;72.30
58309;DHT22;44117;57.142;24.826;2022-08-19T18:17:24;24.80;72.40
58309;DHT22;44117;57.142;24.826;2022-08-19T18:19:52;24.80;72.70
58309;DHT22;44117;57.142;24.826;2022-08-19T18:22:23;24.70;73.00
58309;DHT22;44117;57.142;24.826;2022-08-19T18:24:51;24.70;73.20
58309;DHT22;44117;57.142;24.826;2022-08-19T18:27:19;24.60;73.30
58309;DHT22;44117;57.142;24.826;2022-08-19T18:29:47;24.60;73.50
58309;DHT22;44117;57.142;24.826;2022-08-19T18:32:16;24.50;73.40
58309;DHT22;44117;57.142;24.826;2022-08-19T18:34:50;24.50;73.70